sensor_id;sensor_type;location;lat;lon;timestamp;P1;durP1;ratioP1;P2;durP2;ratioP2
19207;SDS011;9737;59.466;18.036;2023-07-09T00:01:50;6.90;;;4.65;;
19207;SDS011;9737;59.466;18.036;2023-07-09T00:04:39;8.25;;;4.85;;
19207;SDS011;9737;59.466;18.036;2023-07-09T00:07:28;6.88;;;4.80;;
19207;SDS011;9737;59.466;18.036;2023-07-09T00:10:20;10.13;;;4.25;;
19207;SDS011;9737;59.466;18.036;2023-07-09T00:13:07;6.10;;;4.47;;
19207;SDS011;9737;59.466;18.036;2023-07-09T00:15:55;8.23;;;4.40;;
19207;SDS011;9737;59.466;18.036;2023-07-09T00:18:46;5.75;;;4.40;;
19207;SDS011;9737;59.466;18.036;2023-07-09T00:21:35;8.63;;;4.70;;
19207;SDS011;9737;59.466;18.036;2023-07-09T00:24:23;6.60;;;4.75;;
19207;SDS011;9737;59.466;18.036;2023-07-09T00:27:11;6.28;;;4.47;;
19207;SDS011;9737;59.466;18.036;2023-07-09T00:30:02;8.15;;;4.65;;
19207;SDS011;9737;59.466;18.036;2023-07-09T00:32:49;7.70;;;4.45;;
19207;SDS011;9737;59.466;18.036;2023-07-09T00:35:37;5.43;;;4.35;;
19207;SDS011;9737;59.466;18.036;2023-07-09T00:38:24;7.28;;;4.45;;
19207;SDS011;9737;59.466;18.036;2023-07-09T00:41:17;6.35;;;4.80;;
19207;SDS011;9737;59.466;18.036;2023-07-09T00:44:18;7.63;;;4.45;;
19207;SDS011;9737;59.466;18.036;2023-07-09T00:47:18;5.90;;;4.30;;
19207;SDS011;9737;59.466;18.036;2023-07-09T00:50:13;6.20;;;4.55;;
19207;SDS011;9737;59.466;18.036;2023-07-09T00:53:09;11.52;;;4.80;;
19207;SDS011;9737;59.466;18.036;2023-07-09T00:56:05;12.32;;;4.68;;
19207;SDS011;9737;59.466;18.036;2023-07-09T00:58:56;8.48;;;4.82;;
19207;SDS011;9737;59.466;18.036;2023-07-09T01:01:46;6.57;;;4.72;;
19207;SDS011;9737;59.466;18.036;2023-07-09T01:04:37;8.10;;;4.80;;
19207;SDS011;9737;59.466;18.036;2023-07-09T01:07:24;8.38;;;4.38;;
19207;SDS011;9737;59.466;18.036;2023-07-09T01:10:13;6.70;;;4.55;;
19207;SDS011;9737;59.466;18.036;2023-07-09T01:13:02;7.80;;;4.70;;
19207;SDS011;9737;59.466;18.036;2023-07-09T01:15:50;6.63;;;4.47;;
19207;SDS011;9737;59.466;18.036;2023-07-09T01:18:39;12.25;;;5.30;;
19207;SDS011;9737;59.466;18.036;2023-07-09T01:21:27;9.25;;;4.95;;
19207;SDS011;9737;59.466;18.036;2023-07-09T01:24:14;8.60;;;5.30;;
19207;SDS011;9737;59.466;18.036;2023-07-09T01:27:14;9.63;;;4.93;;
19207;SDS011;9737;59.466;18.036;2023-07-09T01:30:04;6.82;;;4.53;;
19207;SDS011;9737;59.466;18.036;2023-07-09T01:32:55;9.07;;;5.30;;
19207;SDS011;9737;59.466;18.036;2023-07-09T01:35:45;13.07;;;4.97;;
19207;SDS011;9737;59.466;18.036;2023-07-09T01:38:36;9.05;;;4.90;;
19207;SDS011;9737;59.466;18.036;2023-07-09T01:41:22;9.77;;;4.95;;
19207;SDS011;9737;59.466;18.036;2023-07-09T01:44:09;8.75;;;4.78;;
19207;SDS011;9737;59.466;18.036;2023-07-09T01:46:59;7.20;;;4.70;;
19207;SDS011;9737;59.466;18.036;2023-07-09T01:49:49;8.07;;;4.60;;
19207;SDS011;9737;59.466;18.036;2023-07-09T01:52:38;7.45;;;5.00;;
19207;SDS011;9737;59.466;18.036;2023-07-09T01:55:29;6.43;;;5.00;;
19207;SDS011;9737;59.466;18.036;2023-07-09T01:58:18;7.00;;;5.13;;
19207;SDS011;9737;59.466;18.036;2023-07-09T02:01:09;7.68;;;5.00;;
19207;SDS011;9737;59.466;18.036;2023-07-09T02:03:56;8.20;;;4.78;;
19207;SDS011;9737;59.466;18.036;2023-07-09T02:06:42;9.23;;;5.13;;
19207;SDS011;9737;59.466;18.036;2023-07-09T02:09:31;10.10;;;5.40;;
19207;SDS011;9737;59.466;18.036;2023-07-09T02:12:21;8.68;;;5.22;;
19207;SDS011;9737;59.466;18.036;2023-07-09T02:15:10;5.53;;;4.50;;
19207;SDS011;9737;59.466;18.036;2023-07-09T02:17:57;7.22;;;4.88;;
19207;SDS011;9737;59.466;18.036;2023-07-09T02:20:48;9.75;;;4.85;;
19207;SDS011;9737;59.466;18.036;2023-07-09T02:23:37;7.57;;;4.70;;
19207;SDS011;9737;59.466;18.036;2023-07-09T02:26:23;8.25;;;4.95;;
19207;SDS011;9737;59.466;18.036;2023-07-09T02:29:12;8.98;;;4.57;;
19207;SDS011;9737;59.466;18.036;2023-07-09T02:31:59;7.95;;;5.00;;
19207;SDS011;9737;59.466;18.036;2023-07-09T02:34:48;7.35;;;4.68;;
19207;SDS011;9737;59.466;18.036;2023-07-09T02:37:38;8.55;;;4.93;;
19207;SDS011;9737;59.466;18.036;2023-07-09T02:40:25;8.27;;;4.68;;
19207;SDS011;9737;59.466;18.036;2023-07-09T02:43:11;5.90;;;4.70;;
19207;SDS011;9737;59.466;18.036;2023-07-09T02:46:01;6.82;;;5.28;;
19207;SDS011;9737;59.466;18.036;2023-07-09T02:48:49;6.25;;;4.63;;
19207;SDS011;9737;59.466;18.036;2023-07-09T02:51:37;8.20;;;4.78;;
19207;SDS011;9737;59.466;18.036;2023-07-09T02:54:24;6.90;;;4.60;;
19207;SDS011;9737;59.466;18.036;2023-07-09T02:57:11;9.10;;;5.10;;
19207;SDS011;9737;59.466;18.036;2023-07-09T02:59:58;7.40;;;5.03;;
19207;SDS011;9737;59.466;18.036;2023-07-09T03:02:48;7.05;;;4.85;;
19207;SDS011;9737;59.466;18.036;2023-07-09T03:05:34;5.75;;;4.53;;
19207;SDS011;9737;59.466;18.036;2023-07-09T03:08:21;7.72;;;5.20;;
19207;SDS011;9737;59.466;18.036;2023-07-09T03:11:10;8.13;;;5.18;;
19207;SDS011;9737;59.466;18.036;2023-07-09T03:13:57;8.50;;;5.18;;
19207;SDS011;9737;59.466;18.036;2023-07-09T03:16:44;6.57;;;4.95;;
19207;SDS011;9737;59.466;18.036;2023-07-09T03:19:32;9.75;;;5.05;;
19207;SDS011;9737;59.466;18.036;2023-07-09T03:22:21;6.93;;;4.72;;
19207;SDS011;9737;59.466;18.036;2023-07-09T03:25:10;7.75;;;4.95;;
19207;SDS011;9737;59.466;18.036;2023-07-09T03:27:56;6.90;;;4.60;;
19207;SDS011;9737;59.466;18.036;2023-07-09T03:30:43;6.95;;;4.50;;
19207;SDS011;9737;59.466;18.036;2023-07-09T03:33:31;6.03;;;4.78;;
19207;SDS011;9737;59.466;18.036;2023-07-09T03:36:21;10.40;;;5.13;;
19207;SDS011;9737;59.466;18.036;2023-07-09T03:39:09;5.80;;;4.63;;
19207;SDS011;9737;59.466;18.036;2023-07-09T03:41:56;6.95;;;5.10;;
19207;SDS011;9737;59.466;18.036;2023-07-09T03:44:44;6.53;;;4.90;;
19207;SDS011;9737;59.466;18.036;2023-07-09T03:47:31;7.07;;;5.05;;
19207;SDS011;9737;59.466;18.036;2023-07-09T03:50:20;6.90;;;5.18;;
19207;SDS011;9737;59.466;18.036;2023-07-09T03:53:07;7.60;;;5.20;;
19207;SDS011;9737;59.466;18.036;2023-07-09T03:55:54;9.00;;;5.32;;
19207;SDS011;9737;59.466;18.036;2023-07-09T03:58:45;8.43;;;5.15;;
19207;SDS011;9737;59.466;18.036;2023-07-09T04:01:32;7.22;;;5.85;;
19207;SDS011;9737;59.466;18.036;2023-07-09T04:04:18;11.07;;;5.45;;
19207;SDS011;9737;59.466;18.036;2023-07-09T04:07:08;10.55;;;6.13;;
19207;SDS011;9737;59.466;18.036;2023-07-09T04:09:56;8.05;;;5.40;;
19207;SDS011;9737;59.466;18.036;2023-07-09T04:12:42;8.50;;;5.88;;
19207;SDS011;9737;59.466;18.036;2023-07-09T04:15:29;10.00;;;6.22;;
19207;SDS011;9737;59.466;18.036;2023-07-09T04:18:15;9.35;;;5.97;;
19207;SDS011;9737;59.466;18.036;2023-07-09T04:21:01;7.70;;;5.90;;
19207;SDS011;9737;59.466;18.036;2023-07-09T04:23:48;7.10;;;5.68;;
19207;SDS011;9737;59.466;18.036;2023-07-09T04:26:36;7.80;;;6.13;;
19207;SDS011;9737;59.466;18.036;2023-07-09T04:29:05;6.68;;;5.32;;
19207;SDS011;9737;59.466;18.036;2023-07-09T04:31:33;8.27;;;6.65;;
19207;SDS011;9737;59.466;18.036;2023-07-09T04:34:01;7.25;;;5.65;;
19207;SDS011;9737;59.466;18.036;2023-07-09T04:36:29;7.85;;;5.65;;
19207;SDS011;9737;59.466;18.036;2023-07-09T04:38:57;9.65;;;5.90;;
19207;SDS011;9737;59.466;18.036;2023-07-09T04:41:25;8.80;;;5.60;;
19207;SDS011;9737;59.466;18.036;2023-07-09T04:43:55;7.85;;;6.22;;
19207;SDS011;9737;59.466;18.036;2023-07-09T04:46:22;8.02;;;5.90;;
19207;SDS011;9737;59.466;18.036;2023-07-09T04:48:50;8.60;;;6.10;;
19207;SDS011;9737;59.466;18.036;2023-07-09T04:51:18;7.70;;;5.57;;
19207;SDS011;9737;59.466;18.036;2023-07-09T04:53:46;9.13;;;6.07;;
19207;SDS011;9737;59.466;18.036;2023-07-09T04:56:14;9.38;;;5.97;;
19207;SDS011;9737;59.466;18.036;2023-07-09T04:58:42;7.53;;;5.70;;
19207;SDS011;9737;59.466;18.036;2023-07-09T05:01:11;10.02;;;6.80;;
19207;SDS011;9737;59.466;18.036;2023-07-09T05:03:39;9.57;;;6.00;;
19207;SDS011;9737;59.466;18.036;2023-07-09T05:06:06;11.50;;;5.90;;
19207;SDS011;9737;59.466;18.036;2023-07-09T05:08:34;11.07;;;6.30;;
19207;SDS011;9737;59.466;18.036;2023-07-09T05:11:02;12.60;;;6.40;;
19207;SDS011;9737;59.466;18.036;2023-07-09T05:13:30;10.80;;;6.35;;
19207;SDS011;9737;59.466;18.036;2023-07-09T05:15:58;12.13;;;6.30;;
19207;SDS011;9737;59.466;18.036;2023-07-09T05:18:28;10.52;;;6.03;;
19207;SDS011;9737;59.466;18.036;2023-07-09T05:20:56;7.40;;;6.18;;
19207;SDS011;9737;59.466;18.036;2023-07-09T05:23:24;11.60;;;6.15;;
19207;SDS011;9737;59.466;18.036;2023-07-09T05:25:55;9.45;;;6.13;;
19207;SDS011;9737;59.466;18.036;2023-07-09T05:28:24;8.35;;;5.85;;
19207;SDS011;9737;59.466;18.036;2023-07-09T05:30:52;8.70;;;5.82;;
19207;SDS011;9737;59.466;18.036;2023-07-09T05:33:20;9.27;;;5.68;;
19207;SDS011;9737;59.466;18.036;2023-07-09T05:35:49;11.35;;;6.03;;
19207;SDS011;9737;59.466;18.036;2023-07-09T05:38:17;7.32;;;5.82;;
19207;SDS011;9737;59.466;18.036;2023-07-09T05:40:45;7.45;;;5.75;;
19207;SDS011;9737;59.466;18.036;2023-07-09T05:43:13;7.88;;;6.18;;
19207;SDS011;9737;59.466;18.036;2023-07-09T05:45:41;10.93;;;5.90;;
19207;SDS011;9737;59.466;18.036;2023-07-09T05:48:08;11.23;;;5.65;;
19207;SDS011;9737;59.466;18.036;2023-07-09T05:50:36;9.10;;;5.68;;
19207;SDS011;9737;59.466;18.036;2023-07-09T05:53:06;8.38;;;5.20;;
19207;SDS011;9737;59.466;18.036;2023-07-09T05:55:33;7.95;;;5.85;;
19207;SDS011;9737;59.466;18.036;2023-07-09T05:58:02;6.68;;;5.20;;
19207;SDS011;9737;59.466;18.036;2023-07-09T06:00:30;7.22;;;5.28;;
19207;SDS011;9737;59.466;18.036;2023-07-09T06:02:57;6.72;;;4.90;;
19207;SDS011;9737;59.466;18.036;2023-07-09T06:05:25;7.10;;;5.07;;
19207;SDS011;9737;59.466;18.036;2023-07-09T06:07:53;6.70;;;4.95;;
19207;SDS011;9737;59.466;18.036;2023-07-09T06:10:22;7.72;;;4.55;;
19207;SDS011;9737;59.466;18.036;2023-07-09T06:12:51;6.57;;;5.05;;
19207;SDS011;9737;59.466;18.036;2023-07-09T06:15:19;8.18;;;5.00;;
19207;SDS011;9737;59.466;18.036;2023-07-09T06:17:47;6.30;;;4.75;;
19207;SDS011;9737;59.466;18.036;2023-07-09T06:20:15;8.13;;;4.88;;
19207;SDS011;9737;59.466;18.036;2023-07-09T06:22:42;6.28;;;5.05;;
19207;SDS011;9737;59.466;18.036;2023-07-09T06:25:10;9.48;;;4.93;;
19207;SDS011;9737;59.466;18.036;2023-07-09T06:27:40;9.68;;;4.78;;
19207;SDS011;9737;59.466;18.036;2023-07-09T06:30:08;8.95;;;5.10;;
19207;SDS011;9737;59.466;18.036;2023-07-09T06:32:36;5.80;;;4.60;;
19207;SDS011;9737;59.466;18.036;2023-07-09T06:35:04;8.90;;;4.50;;
19207;SDS011;9737;59.466;18.036;2023-07-09T06:37:32;6.07;;;4.60;;
19207;SDS011;9737;59.466;18.036;2023-07-09T06:40:00;6.50;;;4.78;;
19207;SDS011;9737;59.466;18.036;2023-07-09T06:42:29;6.07;;;4.65;;
19207;SDS011;9737;59.466;18.036;2023-07-09T06:44:59;9.52;;;4.50;;
19207;SDS011;9737;59.466;18.036;2023-07-09T06:47:27;5.70;;;4.80;;
19207;SDS011;9737;59.466;18.036;2023-07-09T06:49:55;10.75;;;5.13;;
19207;SDS011;9737;59.466;18.036;2023-07-09T06:52:22;6.93;;;4.38;;
19207;SDS011;9737;59.466;18.036;2023-07-09T06:54:50;5.18;;;4.10;;
19207;SDS011;9737;59.466;18.036;2023-07-09T06:57:18;4.70;;;3.80;;
19207;SDS011;9737;59.466;18.036;2023-07-09T06:59:46;5.82;;;3.28;;
19207;SDS011;9737;59.466;18.036;2023-07-09T07:02:15;6.82;;;3.60;;
19207;SDS011;9737;59.466;18.036;2023-07-09T07:04:44;6.40;;;3.83;;
19207;SDS011;9737;59.466;18.036;2023-07-09T07:07:11;6.05;;;3.83;;
19207;SDS011;9737;59.466;18.036;2023-07-09T07:09:39;6.63;;;4.50;;
19207;SDS011;9737;59.466;18.036;2023-07-09T07:12:07;5.80;;;4.05;;
19207;SDS011;9737;59.466;18.036;2023-07-09T07:14:36;7.82;;;3.60;;
19207;SDS011;9737;59.466;18.036;2023-07-09T07:17:04;5.43;;;4.55;;
19207;SDS011;9737;59.466;18.036;2023-07-09T07:19:33;7.28;;;4.00;;
19207;SDS011;9737;59.466;18.036;2023-07-09T07:22:01;7.07;;;4.28;;
19207;SDS011;9737;59.466;18.036;2023-07-09T07:24:29;5.93;;;4.00;;
19207;SDS011;9737;59.466;18.036;2023-07-09T07:26:56;4.88;;;3.75;;
19207;SDS011;9737;59.466;18.036;2023-07-09T07:29:24;5.32;;;3.40;;
19207;SDS011;9737;59.466;18.036;2023-07-09T07:31:53;5.10;;;3.70;;
19207;SDS011;9737;59.466;18.036;2023-07-09T07:34:21;5.05;;;3.55;;
19207;SDS011;9737;59.466;18.036;2023-07-09T07:36:50;6.95;;;3.47;;
19207;SDS011;9737;59.466;18.036;2023-07-09T07:39:18;3.42;;;3.13;;
19207;SDS011;9737;59.466;18.036;2023-07-09T07:41:46;4.75;;;3.42;;
19207;SDS011;9737;59.466;18.036;2023-07-09T07:44:14;4.32;;;3.47;;
19207;SDS011;9737;59.466;18.036;2023-07-09T07:46:41;5.05;;;3.53;;
19207;SDS011;9737;59.466;18.036;2023-07-09T07:49:10;3.33;;;3.00;;
19207;SDS011;9737;59.466;18.036;2023-07-09T07:51:37;4.22;;;3.50;;
19207;SDS011;9737;59.466;18.036;2023-07-09T07:54:07;4.03;;;3.55;;
19207;SDS011;9737;59.466;18.036;2023-07-09T07:56:36;4.38;;;3.22;;
19207;SDS011;9737;59.466;18.036;2023-07-09T07:59:06;3.47;;;3.17;;
19207;SDS011;9737;59.466;18.036;2023-07-09T08:01:34;6.13;;;3.40;;
19207;SDS011;9737;59.466;18.036;2023-07-09T08:04:02;4.30;;;3.22;;
19207;SDS011;9737;59.466;18.036;2023-07-09T08:06:31;3.47;;;3.17;;
19207;SDS011;9737;59.466;18.036;2023-07-09T08:08:58;6.53;;;3.55;;
19207;SDS011;9737;59.466;18.036;2023-07-09T08:11:28;5.30;;;3.53;;
19207;SDS011;9737;59.466;18.036;2023-07-09T08:13:58;5.47;;;3.70;;
19207;SDS011;9737;59.466;18.036;2023-07-09T08:16:27;5.10;;;3.60;;
19207;SDS011;9737;59.466;18.036;2023-07-09T08:18:55;5.45;;;3.45;;
19207;SDS011;9737;59.466;18.036;2023-07-09T08:21:23;4.80;;;3.55;;
19207;SDS011;9737;59.466;18.036;2023-07-09T08:23:50;7.13;;;3.30;;
19207;SDS011;9737;59.466;18.036;2023-07-09T08:26:18;3.63;;;3.03;;
19207;SDS011;9737;59.466;18.036;2023-07-09T08:28:47;3.97;;;3.40;;
19207;SDS011;9737;59.466;18.036;2023-07-09T08:31:15;5.63;;;2.85;;
19207;SDS011;9737;59.466;18.036;2023-07-09T08:33:43;4.38;;;3.10;;
19207;SDS011;9737;59.466;18.036;2023-07-09T08:36:11;3.67;;;2.90;;
19207;SDS011;9737;59.466;18.036;2023-07-09T08:38:39;3.63;;;3.17;;
19207;SDS011;9737;59.466;18.036;2023-07-09T08:41:08;5.05;;;3.05;;
19207;SDS011;9737;59.466;18.036;2023-07-09T08:43:47;3.58;;;2.70;;
19207;SDS011;9737;59.466;18.036;2023-07-09T08:46:25;2.92;;;2.60;;
19207;SDS011;9737;59.466;18.036;2023-07-09T08:48:59;5.00;;;2.88;;
19207;SDS011;9737;59.466;18.036;2023-07-09T08:51:32;4.85;;;2.80;;
19207;SDS011;9737;59.466;18.036;2023-07-09T08:54:07;5.80;;;2.78;;
19207;SDS011;9737;59.466;18.036;2023-07-09T08:56:40;3.80;;;2.63;;
19207;SDS011;9737;59.466;18.036;2023-07-09T08:59:10;2.63;;;2.30;;
19207;SDS011;9737;59.466;18.036;2023-07-09T09:01:44;3.17;;;2.65;;
19207;SDS011;9737;59.466;18.036;2023-07-09T09:04:19;3.33;;;2.42;;
19207;SDS011;9737;59.466;18.036;2023-07-09T09:06:52;3.80;;;2.60;;
19207;SDS011;9737;59.466;18.036;2023-07-09T09:09:26;4.45;;;2.67;;
19207;SDS011;9737;59.466;18.036;2023-07-09T09:11:59;4.35;;;2.47;;
19207;SDS011;9737;59.466;18.036;2023-07-09T09:14:38;3.67;;;2.60;;
19207;SDS011;9737;59.466;18.036;2023-07-09T09:17:10;3.58;;;2.70;;
19207;SDS011;9737;59.466;18.036;2023-07-09T09:19:43;2.40;;;2.20;;
19207;SDS011;9737;59.466;18.036;2023-07-09T09:22:17;5.93;;;2.30;;
19207;SDS011;9737;59.466;18.036;2023-07-09T09:24:53;3.08;;;2.20;;
19207;SDS011;9737;59.466;18.036;2023-07-09T09:27:25;2.10;;;1.90;;
19207;SDS011;9737;59.466;18.036;2023-07-09T09:29:54;1.70;;;1.60;;
19207;SDS011;9737;59.466;18.036;2023-07-09T09:32:23;3.75;;;1.90;;
19207;SDS011;9737;59.466;18.036;2023-07-09T09:34:53;1.52;;;1.42;;
19207;SDS011;9737;59.466;18.036;2023-07-09T09:37:26;3.30;;;1.67;;
19207;SDS011;9737;59.466;18.036;2023-07-09T09:39:56;2.95;;;1.55;;
19207;SDS011;9737;59.466;18.036;2023-07-09T09:42:29;4.00;;;1.60;;
19207;SDS011;9737;59.466;18.036;2023-07-09T09:44:58;2.03;;;1.83;;
19207;SDS011;9737;59.466;18.036;2023-07-09T09:47:26;2.80;;;1.65;;
19207;SDS011;9737;59.466;18.036;2023-07-09T09:49:54;1.95;;;1.80;;
19207;SDS011;9737;59.466;18.036;2023-07-09T09:52:29;2.33;;;1.75;;
19207;SDS011;9737;59.466;18.036;2023-07-09T09:55:01;3.10;;;1.33;;
19207;SDS011;9737;59.466;18.036;2023-07-09T09:57:31;2.00;;;1.60;;
19207;SDS011;9737;59.466;18.036;2023-07-09T10:00:00;1.60;;;1.50;;
19207;SDS011;9737;59.466;18.036;2023-07-09T10:02:29;2.08;;;1.40;;
19207;SDS011;9737;59.466;18.036;2023-07-09T10:04:58;4.03;;;1.48;;
19207;SDS011;9737;59.466;18.036;2023-07-09T10:07:27;3.45;;;1.52;;
19207;SDS011;9737;59.466;18.036;2023-07-09T10:10:02;44.92;;;4.13;;
19207;SDS011;9737;59.466;18.036;2023-07-09T10:12:39;14.60;;;2.70;;
19207;SDS011;9737;59.466;18.036;2023-07-09T10:15:19;3.88;;;1.50;;
19207;SDS011;9737;59.466;18.036;2023-07-09T10:17:57;1.65;;;1.55;;
19207;SDS011;9737;59.466;18.036;2023-07-09T10:20:32;4.75;;;1.30;;
19207;SDS011;9737;59.466;18.036;2023-07-09T10:23:09;3.25;;;1.38;;
19207;SDS011;9737;59.466;18.036;2023-07-09T10:25:47;2.03;;;1.30;;
19207;SDS011;9737;59.466;18.036;2023-07-09T10:28:28;3.25;;;1.45;;
19207;SDS011;9737;59.466;18.036;2023-07-09T10:31:12;1.83;;;1.40;;
19207;SDS011;9737;59.466;18.036;2023-07-09T10:33:50;1.73;;;1.40;;
19207;SDS011;9737;59.466;18.036;2023-07-09T10:36:33;3.00;;;1.30;;
19207;SDS011;9737;59.466;18.036;2023-07-09T10:39:13;3.65;;;1.17;;
19207;SDS011;9737;59.466;18.036;2023-07-09T10:41:45;2.90;;;1.33;;
19207;SDS011;9737;59.466;18.036;2023-07-09T10:44:16;1.23;;;1.13;;
19207;SDS011;9737;59.466;18.036;2023-07-09T10:46:49;1.58;;;1.10;;
19207;SDS011;9737;59.466;18.036;2023-07-09T10:49:22;1.10;;;1.00;;
19207;SDS011;9737;59.466;18.036;2023-07-09T10:52:00;1.75;;;1.17;;
19207;SDS011;9737;59.466;18.036;2023-07-09T10:54:33;1.42;;;1.17;;
19207;SDS011;9737;59.466;18.036;2023-07-09T10:57:08;3.53;;;1.40;;
19207;SDS011;9737;59.466;18.036;2023-07-09T10:59:42;2.85;;;1.40;;
19207;SDS011;9737;59.466;18.036;2023-07-09T11:02:16;2.38;;;1.50;;
19207;SDS011;9737;59.466;18.036;2023-07-09T11:04:49;2.28;;;1.35;;
19207;SDS011;9737;59.466;18.036;2023-07-09T11:07:23;1.70;;;1.50;;
19207;SDS011;9737;59.466;18.036;2023-07-09T11:09:55;1.65;;;1.20;;
19207;SDS011;9737;59.466;18.036;2023-07-09T11:12:27;1.42;;;1.15;;
19207;SDS011;9737;59.466;18.036;2023-07-09T11:15:00;1.33;;;1.23;;
19207;SDS011;9737;59.466;18.036;2023-07-09T11:17:33;1.55;;;1.20;;
19207;SDS011;9737;59.466;18.036;2023-07-09T11:20:06;1.67;;;1.30;;
19207;SDS011;9737;59.466;18.036;2023-07-09T11:22:50;2.00;;;1.30;;
19207;SDS011;9737;59.466;18.036;2023-07-09T11:25:27;2.60;;;1.30;;
19207;SDS011;9737;59.466;18.036;2023-07-09T11:28:02;1.67;;;1.58;;
19207;SDS011;9737;59.466;18.036;2023-07-09T11:30:33;6.70;;;1.60;;
19207;SDS011;9737;59.466;18.036;2023-07-09T11:33:16;3.03;;;1.40;;
19207;SDS011;9737;59.466;18.036;2023-07-09T11:35:51;5.13;;;1.77;;
19207;SDS011;9737;59.466;18.036;2023-07-09T11:38:21;3.55;;;2.13;;
19207;SDS011;9737;59.466;18.036;2023-07-09T11:40:51;2.05;;;1.50;;
19207;SDS011;9737;59.466;18.036;2023-07-09T11:43:27;3.40;;;1.60;;
19207;SDS011;9737;59.466;18.036;2023-07-09T11:45:57;8.85;;;1.70;;
19207;SDS011;9737;59.466;18.036;2023-07-09T11:48:34;7.03;;;2.10;;
19207;SDS011;9737;59.466;18.036;2023-07-09T11:51:04;1.35;;;1.02;;
19207;SDS011;9737;59.466;18.036;2023-07-09T11:53:43;2.00;;;1.00;;
19207;SDS011;9737;59.466;18.036;2023-07-09T11:56:17;1.30;;;1.20;;
19207;SDS011;9737;59.466;18.036;2023-07-09T11:58:49;2.83;;;1.42;;
19207;SDS011;9737;59.466;18.036;2023-07-09T12:01:18;1.83;;;1.45;;
19207;SDS011;9737;59.466;18.036;2023-07-09T12:03:49;10.52;;;2.42;;
19207;SDS011;9737;59.466;18.036;2023-07-09T12:06:19;2.25;;;1.80;;
19207;SDS011;9737;59.466;18.036;2023-07-09T12:08:50;2.45;;;1.35;;
19207;SDS011;9737;59.466;18.036;2023-07-09T12:11:19;2.67;;;2.28;;
19207;SDS011;9737;59.466;18.036;2023-07-09T12:13:49;9.25;;;6.20;;
19207;SDS011;9737;59.466;18.036;2023-07-09T12:16:19;4.22;;;1.90;;
19207;SDS011;9737;59.466;18.036;2023-07-09T12:18:49;2.03;;;1.60;;
19207;SDS011;9737;59.466;18.036;2023-07-09T12:21:17;1.75;;;1.60;;
19207;SDS011;9737;59.466;18.036;2023-07-09T12:23:46;3.85;;;1.67;;
19207;SDS011;9737;59.466;18.036;2023-07-09T12:26:15;2.25;;;1.52;;
19207;SDS011;9737;59.466;18.036;2023-07-09T12:28:49;2.33;;;1.60;;
19207;SDS011;9737;59.466;18.036;2023-07-09T12:31:20;1.38;;;1.27;;
19207;SDS011;9737;59.466;18.036;2023-07-09T12:33:54;1.67;;;1.23;;
19207;SDS011;9737;59.466;18.036;2023-07-09T12:36:24;2.78;;;1.33;;
19207;SDS011;9737;59.466;18.036;2023-07-09T12:38:53;1.75;;;1.27;;
19207;SDS011;9737;59.466;18.036;2023-07-09T12:41:28;3.20;;;1.20;;
19207;SDS011;9737;59.466;18.036;2023-07-09T12:43:57;4.63;;;1.27;;
19207;SDS011;9737;59.466;18.036;2023-07-09T12:46:25;1.73;;;1.20;;
19207;SDS011;9737;59.466;18.036;2023-07-09T12:48:55;5.05;;;1.23;;
19207;SDS011;9737;59.466;18.036;2023-07-09T12:51:24;3.97;;;1.40;;
19207;SDS011;9737;59.466;18.036;2023-07-09T12:54:02;1.73;;;1.50;;
19207;SDS011;9737;59.466;18.036;2023-07-09T12:56:37;1.92;;;1.30;;
19207;SDS011;9737;59.466;18.036;2023-07-09T12:59:08;1.63;;;1.40;;
19207;SDS011;9737;59.466;18.036;2023-07-09T13:01:48;2.75;;;1.20;;
19207;SDS011;9737;59.466;18.036;2023-07-09T13:04:19;1.35;;;1.15;;
19207;SDS011;9737;59.466;18.036;2023-07-09T13:06:51;2.53;;;1.20;;
19207;SDS011;9737;59.466;18.036;2023-07-09T13:09:23;3.30;;;1.42;;
19207;SDS011;9737;59.466;18.036;2023-07-09T13:11:51;1.48;;;1.30;;
19207;SDS011;9737;59.466;18.036;2023-07-09T13:14:20;1.70;;;1.20;;
19207;SDS011;9737;59.466;18.036;2023-07-09T13:16:49;1.80;;;1.20;;
19207;SDS011;9737;59.466;18.036;2023-07-09T13:19:19;3.28;;;1.17;;
19207;SDS011;9737;59.466;18.036;2023-07-09T13:21:46;1.83;;;1.65;;
19207;SDS011;9737;59.466;18.036;2023-07-09T13:24:16;3.20;;;1.40;;
19207;SDS011;9737;59.466;18.036;2023-07-09T13:26:48;1.60;;;1.50;;
19207;SDS011;9737;59.466;18.036;2023-07-09T13:29:17;3.58;;;1.65;;
19207;SDS011;9737;59.466;18.036;2023-07-09T13:31:47;1.55;;;1.35;;
19207;SDS011;9737;59.466;18.036;2023-07-09T13:34:19;3.35;;;1.40;;
19207;SDS011;9737;59.466;18.036;2023-07-09T13:36:49;1.20;;;1.10;;
19207;SDS011;9737;59.466;18.036;2023-07-09T13:39:20;3.33;;;1.38;;
19207;SDS011;9737;59.466;18.036;2023-07-09T13:41:51;1.20;;;1.10;;
19207;SDS011;9737;59.466;18.036;2023-07-09T13:44:20;2.80;;;1.30;;
19207;SDS011;9737;59.466;18.036;2023-07-09T13:46:51;1.60;;;1.20;;
19207;SDS011;9737;59.466;18.036;2023-07-09T13:49:23;3.72;;;1.08;;
19207;SDS011;9737;59.466;18.036;2023-07-09T13:51:54;1.70;;;1.30;;
19207;SDS011;9737;59.466;18.036;2023-07-09T13:54:28;3.53;;;1.40;;
19207;SDS011;9737;59.466;18.036;2023-07-09T13:57:04;1.50;;;1.00;;
19207;SDS011;9737;59.466;18.036;2023-07-09T13:59:33;1.58;;;1.05;;
19207;SDS011;9737;59.466;18.036;2023-07-09T14:02:01;1.60;;;1.10;;
19207;SDS011;9737;59.466;18.036;2023-07-09T14:04:33;4.07;;;1.33;;
19207;SDS011;9737;59.466;18.036;2023-07-09T14:07:01;2.10;;;1.15;;
19207;SDS011;9737;59.466;18.036;2023-07-09T14:09:29;1.65;;;1.23;;
19207;SDS011;9737;59.466;18.036;2023-07-09T14:11:57;1.42;;;1.25;;
19207;SDS011;9737;59.466;18.036;2023-07-09T14:14:26;1.48;;;1.20;;
19207;SDS011;9737;59.466;18.036;2023-07-09T14:16:59;1.45;;;1.30;;
19207;SDS011;9737;59.466;18.036;2023-07-09T14:19:28;4.40;;;1.38;;
19207;SDS011;9737;59.466;18.036;2023-07-09T14:21:57;4.63;;;1.42;;
19207;SDS011;9737;59.466;18.036;2023-07-09T14:24:26;2.17;;;1.60;;
19207;SDS011;9737;59.466;18.036;2023-07-09T14:26:56;3.10;;;1.70;;
19207;SDS011;9737;59.466;18.036;2023-07-09T14:29:25;4.43;;;1.70;;
19207;SDS011;9737;59.466;18.036;2023-07-09T14:31:53;2.58;;;1.50;;
19207;SDS011;9737;59.466;18.036;2023-07-09T14:34:21;1.67;;;1.50;;
19207;SDS011;9737;59.466;18.036;2023-07-09T14:36:52;2.50;;;1.50;;
19207;SDS011;9737;59.466;18.036;2023-07-09T14:39:23;2.38;;;1.60;;
19207;SDS011;9737;59.466;18.036;2023-07-09T14:41:55;2.22;;;1.70;;
19207;SDS011;9737;59.466;18.036;2023-07-09T14:44:24;2.47;;;1.70;;
19207;SDS011;9737;59.466;18.036;2023-07-09T14:46:54;2.47;;;1.50;;
19207;SDS011;9737;59.466;18.036;2023-07-09T14:49:23;3.95;;;2.53;;
19207;SDS011;9737;59.466;18.036;2023-07-09T14:51:52;1.70;;;1.55;;
19207;SDS011;9737;59.466;18.036;2023-07-09T14:54:23;2.55;;;1.80;;
19207;SDS011;9737;59.466;18.036;2023-07-09T14:56:53;2.88;;;1.50;;
19207;SDS011;9737;59.466;18.036;2023-07-09T14:59:22;3.88;;;1.60;;
19207;SDS011;9737;59.466;18.036;2023-07-09T15:01:50;2.30;;;1.73;;
19207;SDS011;9737;59.466;18.036;2023-07-09T15:04:27;1.70;;;1.60;;
19207;SDS011;9737;59.466;18.036;2023-07-09T15:06:58;4.40;;;1.80;;
19207;SDS011;9737;59.466;18.036;2023-07-09T15:09:28;3.58;;;1.50;;
19207;SDS011;9737;59.466;18.036;2023-07-09T15:11:56;1.85;;;1.45;;
19207;SDS011;9737;59.466;18.036;2023-07-09T15:14:26;1.55;;;1.45;;
19207;SDS011;9737;59.466;18.036;2023-07-09T15:16:54;2.15;;;1.38;;
19207;SDS011;9737;59.466;18.036;2023-07-09T15:19:26;1.95;;;1.50;;
19207;SDS011;9737;59.466;18.036;2023-07-09T15:21:54;4.90;;;1.88;;
19207;SDS011;9737;59.466;18.036;2023-07-09T15:24:24;2.75;;;1.55;;
19207;SDS011;9737;59.466;18.036;2023-07-09T15:26:56;4.90;;;1.90;;
19207;SDS011;9737;59.466;18.036;2023-07-09T15:29:26;2.67;;;1.75;;
19207;SDS011;9737;59.466;18.036;2023-07-09T15:31:55;4.30;;;2.10;;
19207;SDS011;9737;59.466;18.036;2023-07-09T15:34:22;3.38;;;2.20;;
19207;SDS011;9737;59.466;18.036;2023-07-09T15:36:51;2.42;;;1.88;;